Time;durP1;ratioP1;P1;durP2;ratioP2;P2;SDS_P1;SDS_P2;PMS_P1;PMS_P2;Temp;Humidity;BMP_temperature;BMP_pressure;BME280_temperature;BME280_humidity;BME280_pressure;Samples;Min_cycle;Max_cycle;Signal;HPM_P1;HPM_P2
2023/02/27 06:38:40;;;;;;;16.05;9.00;;;;;;;;;;4956108;23;20053;-60
2023/02/27 06:41:06;;;;;;;18.42;11.70;;;;;;;;;;4840450;29;20485;-58
2023/02/27 06:43:33;;;;;;;17.80;12.18;;;;;;;;;;4857210;29;20029;-64
2023/02/27 06:45:59;;;;;;;18.77;12.02;;;;;;;;;;4856948;29;20163;-63
2023/02/27 06:48:26;;;;;;;18.30;12.93;;;;;;;;;;4857454;29;20056;-59
2023/02/27 06:50:55;;;;;;;25.88;14.93;;;;;;;;;;4856623;29;20018;-72
2023/02/27 06:53:22;;;;;;;31.23;18.65;;;;;;;;;;4857380;29;20038;-58
2023/02/27 06:55:48;;;;;;;43.53;24.70;;;;;;;;;;4854564;29;20028;-58
2023/02/27 06:58:14;;;;;;;34.17;21.52;;;;;;;;;;4856897;29;20057;-59
2023/02/27 07:00:40;;;;;;;22.73;14.32;;;;;;;;;;4856795;29;20044;-65
2023/02/27 07:03:08;;;;;;;18.73;12.98;;;;;;;;;;4858201;29;20025;-61
2023/02/27 07:05:34;;;;;;;17.17;10.98;;;;;;;;;;4860791;29;20033;-58
2023/02/27 07:08:01;;;;;;;24.13;15.35;;;;;;;;;;4860416;29;20450;-58
2023/02/27 07:10:27;;;;;;;25.90;16.05;;;;;;;;;;4857363;29;20033;-58
2023/02/27 07:12:54;;;;;;;29.73;18.45;;;;;;;;;;4860440;29;20033;-58
2023/02/27 07:15:20;;;;;;;30.42;17.23;;;;;;;;;;4859913;29;20075;-59
2023/02/27 07:17:46;;;;;;;35.47;19.27;;;;;;;;;;4860266;29;20085;-68
2023/02/27 07:20:12;;;;;;;41.78;21.75;;;;;;;;;;4860242;29;20076;-58
2023/02/27 07:22:39;;;;;;;39.72;19.65;;;;;;;;;;4861534;29;20034;-59
2023/02/27 07:25:05;;;;;;;28.98;16.48;;;;;;;;;;4861176;29;20042;-58
2023/02/27 07:27:31;;;;;;;29.48;16.85;;;;;;;;;;4855536;29;20450;-58
2023/02/27 07:29:58;;;;;;;35.40;18.88;;;;;;;;;;4861207;29;20045;-61
2023/02/27 07:32:24;;;;;;;31.25;17.80;;;;;;;;;;4861114;29;20022;-59
2023/02/27 07:34:50;;;;;;;28.20;16.25;;;;;;;;;;4860526;29;20167;-63
2023/02/27 07:37:16;;;;;;;29.35;16.90;;;;;;;;;;4860936;29;20494;-59
2023/02/27 07:39:42;;;;;;;24.83;15.48;;;;;;;;;;4861150;29;20052;-59
2023/02/27 07:42:08;;;;;;;28.65;18.35;;;;;;;;;;4860884;29;20044;-60
2023/02/27 07:44:34;;;;;;;26.85;16.33;;;;;;;;;;4860246;29;20090;-59
2023/02/27 07:47:00;;;;;;;23.40;15.13;;;;;;;;;;4860168;29;20045;-60
2023/02/27 07:49:26;;;;;;;21.58;14.63;;;;;;;;;;4860931;29;20256;-59
2023/02/27 07:51:52;;;;;;;23.40;15.50;;;;;;;;;;4860479;29;20061;-59
2023/02/27 07:54:19;;;;;;;23.33;14.82;;;;;;;;;;4859657;29;20053;-63
2023/02/27 07:56:45;;;;;;;21.42;14.82;;;;;;;;;;4859801;29;20029;-67
2023/02/27 07:59:11;;;;;;;25.42;15.98;;;;;;;;;;4860289;29;20105;-60
2023/02/27 08:01:37;;;;;;;25.92;15.40;;;;;;;;;;4860432;29;20034;-60
2023/02/27 08:04:03;;;;;;;24.05;14.75;;;;;;;;;;4860645;29;20034;-61
2023/02/27 08:06:29;;;;;;;22.15;15.30;;;;;;;;;;4860187;29;20116;-60
2023/02/27 08:08:55;;;;;;;21.35;14.60;;;;;;;;;;4860725;29;20030;-67
2023/02/27 08:11:21;;;;;;;28.50;17.08;;;;;;;;;;4860626;29;20038;-60
2023/02/27 08:13:48;;;;;;;30.85;18.95;;;;;;;;;;4860222;29;20546;-62
2023/02/27 08:16:14;;;;;;;30.88;18.58;;;;;;;;;;4860819;29;20032;-68
2023/02/27 08:18:40;;;;;;;27.67;16.17;;;;;;;;;;4860541;29;20064;-60
2023/02/27 08:21:06;;;;;;;24.30;15.20;;;;;;;;;;4860307;29;20030;-60
2023/02/27 08:23:33;;;;;;;23.13;14.68;;;;;;;;;;4860264;29;20041;-61
2023/02/27 08:26:00;;;;;;;23.75;14.27;;;;;;;;;;4860492;29;20056;-64
2023/02/27 08:28:26;;;;;;;26.00;15.57;;;;;;;;;;4859258;29;20101;-60
2023/02/27 08:30:53;;;;;;;27.42;16.00;;;;;;;;;;4860056;29;20074;-69
2023/02/27 08:33:19;;;;;;;23.67;13.93;;;;;;;;;;4860225;29;20434;-59
2023/02/27 08:35:45;;;;;;;24.60;15.00;;;;;;;;;;4860117;29;20112;-68
2023/02/27 08:38:12;;;;;;;25.45;14.82;;;;;;;;;;4859478;29;20079;-59
2023/02/27 08:40:38;;;;;;;22.95;14.05;;;;;;;;;;4859768;29;20136;-59
2023/02/27 08:43:04;;;;;;;22.65;14.02;;;;;;;;;;4859859;29;20112;-68
2023/02/27 08:45:30;;;;;;;20.10;12.70;;;;;;;;;;4842988;29;20160;-59
2023/02/27 08:47:56;;;;;;;19.15;12.68;;;;;;;;;;4859699;29;20029;-69
2023/02/27 08:50:22;;;;;;;23.73;14.10;;;;;;;;;;4859868;29;20419;-62
2023/02/27 08:52:48;;;;;;;21.15;12.18;;;;;;;;;;4859525;29;20034;-68
2023/02/27 08:55:14;;;;;;;21.80;13.00;;;;;;;;;;4859557;29;20037;-60
2023/02/27 08:57:40;;;;;;;20.50;12.20;;;;;;;;;;4859384;29;20033;-60
2023/02/27 09:00:07;;;;;;;22.35;12.23;;;;;;;;;;4859401;29;20072;-60
2023/02/27 09:02:33;;;;;;;19.05;12.13;;;;;;;;;;4842793;29;20466;-60
2023/02/27 09:05:00;;;;;;;43.05;22.58;;;;;;;;;;4859154;29;20443;-60
2023/02/27 09:07:26;;;;;;;45.42;25.77;;;;;;;;;;4859238;29;20044;-63
2023/02/27 09:09:53;;;;;;;26.58;16.10;;;;;;;;;;4859425;29;20030;-66
2023/02/27 09:12:19;;;;;;;22.42;12.88;;;;;;;;;;4859195;29;20037;-62
2023/02/27 09:14:45;;;;;;;17.23;10.82;;;;;;;;;;4859430;29;20517;-67
2023/02/27 09:17:11;;;;;;;19.77;11.35;;;;;;;;;;4859260;29;20041;-59
2023/02/27 09:19:37;;;;;;;17.92;9.98;;;;;;;;;;4842451;29;20053;-60
2023/02/27 09:22:03;;;;;;;16.23;9.70;;;;;;;;;;4859318;29;20488;-59
2023/02/27 09:24:29;;;;;;;12.15;8.23;;;;;;;;;;4858272;29;20033;-61
2023/02/27 09:26:55;;;;;;;14.57;8.73;;;;;;;;;;4859025;29;20033;-66
2023/02/27 09:29:22;;;;;;;16.77;10.63;;;;;;;;;;4858924;29;20026;-61
2023/02/27 09:31:48;;;;;;;18.65;12.70;;;;;;;;;;4858736;29;20043;-59
2023/02/27 09:34:14;;;;;;;21.55;13.02;;;;;;;;;;4859160;29;20465;-60
2023/02/27 09:36:40;;;;;;;14.80;8.40;;;;;;;;;;4841855;29;20049;-60
2023/02/27 09:39:08;;;;;;;16.75;10.27;;;;;;;;;;4858633;29;20057;-66
2023/02/27 09:41:53;;;;;;;15.15;8.98;;;;;;;;;;4841923;29;20106;-63
2023/02/27 09:44:31;;;;;;;12.73;8.27;;;;;;;;;;4858319;29;20057;-68
2023/02/27 09:46:57;;;;;;;17.30;10.02;;;;;;;;;;4858707;29;20034;-69
2023/02/27 09:49:25;;;;;;;58.88;36.63;;;;;;;;;;4858880;29;20038;-66
2023/02/27 09:51:52;;;;;;;20.40;11.82;;;;;;;;;;4858680;29;20375;-60
2023/02/27 09:54:18;;;;;;;18.10;11.63;;;;;;;;;;4858937;29;20037;-59
2023/02/27 09:56:47;;;;;;;18.13;9.50;;;;;;;;;;4858304;29;20029;-59
2023/02/27 09:59:28;;;;;;;17.25;9.57;;;;;;;;;;4858612;29;20098;-60
2023/02/27 10:02:07;;;;;;;12.25;7.47;;;;;;;;;;4858972;29;20037;-69
2023/02/27 10:04:33;;;;;;;13.77;8.15;;;;;;;;;;4858417;29;20025;-61
2023/02/27 10:06:59;;;;;;;14.52;9.00;;;;;;;;;;4858360;29;20033;-64
2023/02/27 10:09:35;;;;;;;16.38;9.35;;;;;;;;;;4858560;29;20501;-59
2023/02/27 10:12:20;;;;;;;11.63;7.38;;;;;;;;;;4841527;29;20083;-60
2023/02/27 10:14:51;;;;;;;15.18;8.45;;;;;;;;;;4858482;29;20040;-59
2023/02/27 10:17:22;;;;;;;13.50;8.30;;;;;;;;;;4858107;29;20048;-62
2023/02/27 10:19:49;;;;;;;15.88;9.52;;;;;;;;;;4858303;29;20056;-59
2023/02/27 10:22:19;;;;;;;15.60;8.63;;;;;;;;;;4858134;29;20401;-64
2023/02/27 10:24:52;;;;;;;15.27;9.18;;;;;;;;;;4858782;29;20041;-71
2023/02/27 10:27:19;;;;;;;14.85;9.30;;;;;;;;;;4858364;29;20030;-59
2023/02/27 10:29:45;;;;;;;12.45;8.40;;;;;;;;;;4858422;29;20033;-64
2023/02/27 10:32:18;;;;;;;12.93;8.55;;;;;;;;;;4858871;29;20421;-72
2023/02/27 10:34:47;;;;;;;13.13;7.95;;;;;;;;;;4858631;29;20030;-59
2023/02/27 10:37:15;;;;;;;14.50;9.40;;;;;;;;;;4861684;29;20111;-64
2023/02/27 10:39:46;;;;;;;26.40;15.57;;;;;;;;;;4862096;29;20037;-61
2023/02/27 10:42:13;;;;;;;37.40;19.05;;;;;;;;;;4862428;29;20056;-58
2023/02/27 10:44:39;;;;;;;13.57;8.40;;;;;;;;;;4861902;29;20040;-61
2023/02/27 10:47:05;;;;;;;17.50;9.60;;;;;;;;;;4862128;29;20021;-68
2023/02/27 10:49:33;;;;;;;16.65;8.52;;;;;;;;;;4862105;29;20060;-59
2023/02/27 10:52:04;;;;;;;17.33;9.85;;;;;;;;;;4862049;29;20049;-66
2023/02/27 10:54:30;;;;;;;13.35;7.88;;;;;;;;;;4862180;29;20497;-61
2023/02/27 10:56:57;;;;;;;18.27;9.85;;;;;;;;;;4861868;29;20049;-68
2023/02/27 10:59:28;;;;;;;14.65;9.50;;;;;;;;;;4861836;29;20037;-61
2023/02/27 11:01:56;;;;;;;15.43;9.40;;;;;;;;;;4861559;29;20120;-60
2023/02/27 11:04:26;;;;;;;14.80;10.15;;;;;;;;;;4861905;29;20108;-60
2023/02/27 11:06:53;;;;;;;19.70;11.40;;;;;;;;;;4861605;29;20423;-62
2023/02/27 11:09:20;;;;;;;17.48;11.63;;;;;;;;;;4861756;29;20041;-59
2023/02/27 11:11:46;;;;;;;19.52;13.20;;;;;;;;;;4861966;29;20029;-60
2023/02/27 11:14:23;;;;;;;21.00;13.15;;;;;;;;;;4861856;29;20170;-58
2023/02/27 11:16:54;;;;;;;21.02;13.43;;;;;;;;;;4861679;29;20046;-61
2023/02/27 11:19:25;;;;;;;21.48;14.32;;;;;;;;;;4861724;29;20045;-65
2023/02/27 11:22:01;;;;;;;23.25;14.25;;;;;;;;;;4862008;29;20082;-61
2023/02/27 11:24:28;;;;;;;27.90;16.30;;;;;;;;;;4861579;29;20033;-61
2023/02/27 11:26:55;;;;;;;22.80;13.80;;;;;;;;;;4861434;29;20520;-61
2023/02/27 11:29:21;;;;;;;22.05;13.55;;;;;;;;;;4861327;29;20033;-59
2023/02/27 11:31:47;;;;;;;32.25;16.40;;;;;;;;;;4844821;29;20624;-59
2023/02/27 11:34:35;;;;;;;37.47;22.58;;;;;;;;;;4860997;29;20026;-59
2023/02/27 11:37:03;;;;;;;22.48;15.25;;;;;;;;;;4859567;29;20090;-58
2023/02/27 11:39:32;;;;;;;25.42;15.95;;;;;;;;;;4860147;29;20041;-59
2023/02/27 11:42:04;;;;;;;24.88;14.95;;;;;;;;;;4843043;29;20041;-60
2023/02/27 11:44:31;;;;;;;25.55;15.90;;;;;;;;;;4859774;29;20090;-59
2023/02/27 11:47:07;;;;;;;23.65;13.98;;;;;;;;;;4859231;29;20050;-59
2023/02/27 11:49:38;;;;;;;27.88;16.02;;;;;;;;;;4858630;29;20050;-59
2023/02/27 11:52:04;;;;;;;36.33;20.58;;;;;;;;;;4858314;29;20025;-59
2023/02/27 11:54:33;;;;;;;21.30;13.52;;;;;;;;;;4860862;29;20030;-59
2023/02/27 11:57:14;;;;;;;23.17;12.60;;;;;;;;;;4860632;29;20113;-71
2023/02/27 12:00:10;;;;;;;21.23;12.85;;;;;;;;;;4859749;29;20127;-60
2023/02/27 12:02:43;;;;;;;21.05;13.05;;;;;;;;;;4840158;29;20042;-64
2023/02/27 12:05:15;;;;;;;23.75;13.32;;;;;;;;;;4856557;29;20029;-71
2023/02/27 12:07:41;;;;;;;;;;;;;;;;;;4855434;29;20048;-71
2023/02/27 12:10:07;;;;;;;25.70;15.95;;;;;;;;;;4860730;29;19915;-60
2023/02/27 12:12:52;;;;;;;22.92;14.05;;;;;;;;;;4860430;29;20565;-59
2023/02/27 12:15:22;;;;;;;27.27;15.57;;;;;;;;;;4861414;29;20065;-59
2023/02/27 12:18:02;;;;;;;29.58;15.30;;;;;;;;;;4860285;29;20026;-64
2023/02/27 12:20:28;;;;;;;22.17;15.05;;;;;;;;;;4860599;29;20378;-60
2023/02/27 12:22:54;;;;;;;25.25;16.27;;;;;;;;;;4859626;29;20040;-60
2023/02/27 12:25:26;;;;;;;23.75;15.23;;;;;;;;;;4860155;29;20482;-59
2023/02/27 12:28:11;;;;;;;22.63;13.98;;;;;;;;;;4860430;29;20037;-62
2023/02/27 12:31:09;;;;;;;22.88;15.43;;;;;;;;;;4860890;29;20037;-61
2023/02/27 12:33:40;;;;;;;25.13;15.02;;;;;;;;;;4784908;30;20126;-62
2023/02/27 12:36:11;;;;;;;22.98;14.65;;;;;;;;;;4783044;30;20580;-67
2023/02/27 12:38:37;;;;;;;25.02;15.63;;;;;;;;;;4782409;29;20065;-59
2023/02/27 12:41:03;;;;;;;24.67;15.18;;;;;;;;;;4782007;30;20043;-59
2023/02/27 12:43:50;;;;;;;23.90;15.88;;;;;;;;;;4783574;30;20047;-69
2023/02/27 12:46:21;;;;;;;25.80;18.15;;;;;;;;;;4782919;30;20031;-67
2023/02/27 12:48:56;;;;;;;26.20;16.65;;;;;;;;;;4783679;30;20523;-60
2023/02/27 12:51:35;;;;;;;26.17;16.77;;;;;;;;;;4766834;30;20396;-61
2023/02/27 12:54:19;;;;;;;29.70;17.23;;;;;;;;;;4766688;30;20031;-60
2023/02/27 12:57:00;;;;;;;25.88;15.65;;;;;;;;;;4766923;30;20123;-64
2023/02/27 12:59:38;;;;;;;23.77;15.95;;;;;;;;;;4764983;30;20097;-63
2023/02/27 13:02:33;;;;;;;26.90;17.10;;;;;;;;;;4779668;30;20047;-60
2023/02/27 13:04:59;;;;;;;26.42;16.85;;;;;;;;;;4727452;30;20091;-61
2023/02/27 13:07:28;;;;;;;49.88;28.52;;;;;;;;;;4719536;30;20076;-61
2023/02/27 13:10:05;;;;;;;32.72;18.90;;;;;;;;;;4756782;30;20043;-61
2023/02/27 13:12:36;;;;;;;23.30;13.65;;;;;;;;;;4766133;30;20055;-66
2023/02/27 13:15:09;;;;;;;18.38;12.70;;;;;;;;;;4766217;30;20056;-62
2023/02/27 13:17:35;;;;;;;21.27;13.48;;;;;;;;;;4766428;30;20172;-62
2023/02/27 13:20:22;;;;;;;29.67;17.40;;;;;;;;;;4766196;30;20440;-59
2023/02/27 13:22:53;;;;;;;39.38;20.98;;;;;;;;;;4753856;30;20044;-66
2023/02/27 13:25:19;;;;;;;46.53;24.60;;;;;;;;;;4756632;30;20552;-72
2023/02/27 13:28:00;;;;;;;37.03;19.27;;;;;;;;;;4753770;30;20044;-61
2023/02/27 13:30:36;;;;;;;64.60;30.90;;;;;;;;;;4750388;30;20044;-60
2023/02/27 13:33:07;;;;;;;58.65;28.52;;;;;;;;;;4748748;30;20048;-61
2023/02/27 13:35:40;;;;;;;59.13;29.58;;;;;;;;;;4747428;30;20048;-60
2023/02/27 13:38:25;;;;;;;61.38;30.13;;;;;;;;;;4746979;30;20425;-60
2023/02/27 13:40:51;;;;;;;29.13;16.80;;;;;;;;;;4767054;29;20601;-61
2023/02/27 13:43:26;;;;;;;20.00;12.38;;;;;;;;;;4832552;29;20459;-61
2023/02/27 13:45:56;;;;;;;23.70;14.35;;;;;;;;;;4832199;29;20030;-61
2023/02/27 13:48:34;;;;;;;20.25;12.60;;;;;;;;;;4836779;29;20098;-60
2023/02/27 13:51:01;;;;;;;29.80;17.77;;;;;;;;;;4837394;29;20110;-62
2023/02/27 13:53:28;;;;;;;28.10;15.02;;;;;;;;;;4837140;29;20073;-61
2023/02/27 13:56:12;;;;;;;30.60;17.65;;;;;;;;;;4837493;29;20065;-60
2023/02/27 13:58:38;;;;;;;33.95;19.13;;;;;;;;;;4835699;29;20061;-59
2023/02/27 14:01:05;;;;;;;26.85;14.05;;;;;;;;;;4856487;29;20085;-64
2023/02/27 14:03:31;;;;;;;27.45;15.63;;;;;;;;;;4857216;29;20113;-60
2023/02/27 14:06:00;;;;;;;23.98;15.13;;;;;;;;;;4857396;29;20109;-63
2023/02/27 14:08:27;;;;;;;24.02;15.05;;;;;;;;;;4857624;29;20118;-60
2023/02/27 14:11:13;;;;;;;30.88;17.05;;;;;;;;;;4855099;29;20087;-60
2023/02/27 14:13:48;;;;;;;55.53;25.25;;;;;;;;;;4842586;29;20033;-61
2023/02/27 14:16:33;;;;;;;63.88;28.55;;;;;;;;;;4855154;29;20033;-60
2023/02/27 14:19:00;;;;;;;49.40;22.75;;;;;;;;;;4856281;29;20810;-60
2023/02/27 14:21:46;;;;;;;58.65;25.13;;;;;;;;;;4858313;29;20064;-64
2023/02/27 14:24:14;;;;;;;44.65;21.88;;;;;;;;;;4858696;29;20035;-61
2023/02/27 14:26:40;;;;;;;40.35;20.20;;;;;;;;;;4858721;29;20026;-60
2023/02/27 14:29:13;;;;;;;33.00;17.55;;;;;;;;;;4858232;29;20037;-60
2023/02/27 14:31:40;;;;;;;41.03;22.45;;;;;;;;;;4858734;29;20067;-60
2023/02/27 14:34:07;;;;;;;25.10;14.50;;;;;;;;;;4858745;29;20080;-61
2023/02/27 14:36:43;;;;;;;18.58;11.35;;;;;;;;;;4858445;29;20041;-61
2023/02/27 14:39:19;;;;;;;18.75;12.00;;;;;;;;;;4858121;29;20498;-59
2023/02/27 14:41:48;;;;;;;18.85;11.85;;;;;;;;;;4858441;29;20058;-61
2023/02/27 14:44:26;;;;;;;20.40;12.35;;;;;;;;;;4857860;29;20808;-60
2023/02/27 14:46:53;;;;;;;19.70;12.25;;;;;;;;;;4857292;29;20043;-61
2023/02/27 14:49:21;;;;;;;20.23;12.70;;;;;;;;;;4856870;29;20036;-60
2023/02/27 14:51:47;;;;;;;16.00;11.07;;;;;;;;;;4856742;29;20048;-73
2023/02/27 14:54:19;;;;;;;22.73;12.95;;;;;;;;;;4857001;29;20026;-67
2023/02/27 14:56:57;;;;;;;41.58;20.73;;;;;;;;;;4857226;29;20078;-61
2023/02/27 14:59:23;;;;;;;22.50;13.55;;;;;;;;;;4856504;29;20049;-62
2023/02/27 15:01:50;;;;;;;26.25;15.63;;;;;;;;;;4854467;29;20157;-59
2023/02/27 15:04:19;;;;;;;20.80;13.27;;;;;;;;;;4857141;29;20036;-64
2023/02/27 15:06:46;;;;;;;29.17;15.73;;;;;;;;;;4857211;29;20061;-63
2023/02/27 15:09:21;;;;;;;27.55;15.77;;;;;;;;;;4858437;29;20034;-59
2023/02/27 15:11:47;;;;;;;26.83;15.02;;;;;;;;;;4858054;29;20036;-60
2023/02/27 15:14:17;;;;;;;38.40;19.52;;;;;;;;;;4858368;29;20062;-60
2023/02/27 15:16:43;;;;;;;31.25;17.92;;;;;;;;;;4858047;29;20034;-60
2023/02/27 15:19:20;;;;;;;32.85;17.90;;;;;;;;;;4858326;29;20089;-59
2023/02/27 15:21:50;;;;;;;35.22;19.13;;;;;;;;;;4858330;29;20037;-60
2023/02/27 15:24:24;;;;;;;33.50;17.88;;;;;;;;;;4861162;29;20082;-59
2023/02/27 15:26:55;;;;;;;198.45;75.53;;;;;;;;;;4861419;29;20037;-61
2023/02/27 15:29:23;;;;;;;39.35;19.67;;;;;;;;;;4861324;29;20030;-61
2023/02/27 15:31:50;;;;;;;28.02;16.13;;;;;;;;;;4861446;29;20485;-57
2023/02/27 15:34:16;;;;;;;26.10;15.30;;;;;;;;;;4876525;29;20029;-60
2023/02/27 15:36:45;;;;;;;42.58;23.23;;;;;;;;;;4879594;29;20037;-59
2023/02/27 15:39:15;;;;;;;23.65;14.07;;;;;;;;;;4879730;29;20061;-59
2023/02/27 15:41:47;;;;;;;22.15;13.18;;;;;;;;;;4880019;29;20104;-58
2023/02/27 15:44:13;;;;;;;48.80;25.20;;;;;;;;;;4879810;29;20041;-60
2023/02/27 15:46:39;;;;;;;27.63;14.57;;;;;;;;;;4879768;29;20120;-58
2023/02/27 15:49:05;;;;;;;27.02;15.93;;;;;;;;;;4879936;29;20448;-58
2023/02/27 15:51:32;;;;;;;58.47;29.65;;;;;;;;;;4876037;29;20028;-62
2023/02/27 15:54:00;;;;;;;33.35;18.58;;;;;;;;;;4861178;29;20045;-58
2023/02/27 15:56:30;;;;;;;35.90;18.38;;;;;;;;;;4845438;29;20080;-58
2023/02/27 15:58:58;;;;;;;27.70;15.85;;;;;;;;;;4861194;29;20396;-61
2023/02/27 16:01:25;;;;;;;18.55;11.45;;;;;;;;;;4861554;29;20030;-67
2023/02/27 16:03:55;;;;;;;62.35;30.52;;;;;;;;;;4861427;29;20045;-71
2023/02/27 16:06:25;;;;;;;24.33;13.98;;;;;;;;;;4861065;29;20026;-65
2023/02/27 16:08:56;;;;;;;18.85;11.52;;;;;;;;;;4860732;29;20072;-58
2023/02/27 16:11:24;;;;;;;32.75;18.27;;;;;;;;;;4860591;29;20357;-58
2023/02/27 16:13:50;;;;;;;24.02;15.27;;;;;;;;;;4860661;29;20022;-58
2023/02/27 16:16:19;;;;;;;66.35;32.67;;;;;;;;;;4860435;29;20082;-63
2023/02/27 16:18:46;;;;;;;24.60;14.55;;;;;;;;;;4860460;29;20100;-60
2023/02/27 16:21:23;;;;;;;26.42;16.23;;;;;;;;;;4860464;29;20132;-60
2023/02/27 16:23:49;;;;;;;75.97;35.42;;;;;;;;;;4860564;29;20029;-61
2023/02/27 16:26:25;;;;;;;24.42;14.82;;;;;;;;;;4860409;29;20030;-60
2023/02/27 16:28:51;;;;;;;32.97;17.95;;;;;;;;;;4860207;29;20046;-64
2023/02/27 16:31:28;;;;;;;30.33;17.40;;;;;;;;;;4860247;29;20034;-60
2023/02/27 16:33:55;;;;;;;26.92;15.30;;;;;;;;;;4859957;29;20034;-71
2023/02/27 16:36:23;;;;;;;48.35;22.17;;;;;;;;;;4860426;29;20084;-60
2023/02/27 16:38:49;;;;;;;39.88;19.75;;;;;;;;;;4859774;29;20060;-60
2023/02/27 16:41:16;;;;;;;55.22;28.02;;;;;;;;;;4859893;29;20152;-58
2023/02/27 16:43:43;;;;;;;38.65;21.60;;;;;;;;;;4859865;29;20057;-60
2023/02/27 16:46:10;;;;;;;32.22;19.67;;;;;;;;;;4859824;29;20041;-60
2023/02/27 16:48:36;;;;;;;30.30;17.10;;;;;;;;;;4860032;29;20039;-59
2023/02/27 16:51:02;;;;;;;32.22;18.08;;;;;;;;;;4859532;29;20053;-64
2023/02/27 16:53:28;;;;;;;32.50;19.00;;;;;;;;;;4859873;29;20049;-69
2023/02/27 16:55:54;;;;;;;40.97;24.48;;;;;;;;;;4859357;29;20033;-60
2023/02/27 16:58:21;;;;;;;54.28;29.08;;;;;;;;;;4859544;29;20388;-60
2023/02/27 17:00:47;;;;;;;40.50;23.45;;;;;;;;;;4859150;29;20044;-61
2023/02/27 17:03:13;;;;;;;35.10;20.05;;;;;;;;;;4859158;29;20030;-61
2023/02/27 17:05:40;;;;;;;35.13;20.05;;;;;;;;;;4858768;29;20026;-64
2023/02/27 17:08:06;;;;;;;39.83;20.52;;;;;;;;;;4858234;29;20025;-60
2023/02/27 17:10:32;;;;;;;45.00;23.00;;;;;;;;;;4855579;29;20117;-61
2023/02/27 17:12:58;;;;;;;54.15;27.75;;;;;;;;;;4854979;29;20033;-62
2023/02/27 17:15:26;;;;;;;41.78;22.25;;;;;;;;;;4853108;29;20053;-76
2023/02/27 17:17:53;;;;;;;38.85;21.80;;;;;;;;;;4854657;29;20033;-60
2023/02/27 17:20:20;;;;;;;42.95;22.17;;;;;;;;;;4855292;29;20037;-60
2023/02/27 17:22:46;;;;;;;39.10;20.58;;;;;;;;;;4859327;29;20036;-60
2023/02/27 17:25:13;;;;;;;43.70;22.88;;;;;;;;;;4859226;29;20026;-60
2023/02/27 17:27:39;;;;;;;40.88;22.48;;;;;;;;;;4859047;29;20125;-60
2023/02/27 17:30:06;;;;;;;49.42;26.05;;;;;;;;;;4858827;29;20074;-60
2023/02/27 17:32:33;;;;;;;53.92;27.63;;;;;;;;;;4859134;29;20033;-73
2023/02/27 17:34:59;;;;;;;55.75;29.55;;;;;;;;;;4857756;29;20386;-67
2023/02/27 17:37:25;;;;;;;46.85;24.75;;;;;;;;;;4857084;29;20122;-59
2023/02/27 17:39:52;;;;;;;53.53;27.20;;;;;;;;;;4857622;29;20040;-65
2023/02/27 17:42:18;;;;;;;55.85;29.83;;;;;;;;;;4858715;29;20033;-65
2023/02/27 17:44:47;;;;;;;65.32;33.88;;;;;;;;;;4857994;29;20026;-70
2023/02/27 17:47:13;;;;;;;60.28;31.90;;;;;;;;;;4858772;29;20066;-60
2023/02/27 17:49:40;;;;;;;64.38;34.88;;;;;;;;;;4858840;29;20053;-60
2023/02/27 17:52:06;;;;;;;68.00;37.20;;;;;;;;;;4859006;29;20423;-68
2023/02/27 17:54:33;;;;;;;55.03;30.38;;;;;;;;;;4859378;29;20462;-65
2023/02/27 17:56:59;;;;;;;62.78;34.17;;;;;;;;;;4858888;29;20728;-63
2023/02/27 17:59:25;;;;;;;65.93;35.63;;;;;;;;;;4858645;29;20587;-71
2023/02/27 18:01:51;;;;;;;66.30;34.40;;;;;;;;;;4858705;29;20690;-60
2023/02/27 18:04:17;;;;;;;75.72;37.55;;;;;;;;;;4858361;29;20056;-72
2023/02/27 18:06:43;;;;;;;67.28;35.83;;;;;;;;;;4862603;29;20029;-60
2023/02/27 18:09:09;;;;;;;68.63;35.85;;;;;;;;;;4872434;29;20037;-59
2023/02/27 18:11:36;;;;;;;69.05;35.97;;;;;;;;;;4877030;29;20028;-60
2023/02/27 18:14:03;;;;;;;63.45;33.42;;;;;;;;;;4866645;29;20041;-60
2023/02/27 18:16:29;;;;;;;62.00;32.90;;;;;;;;;;4858452;29;20362;-60
2023/02/27 18:18:55;;;;;;;73.85;39.78;;;;;;;;;;4857713;29;20021;-60
2023/02/27 18:21:23;;;;;;;45.67;26.25;;;;;;;;;;4856993;29;20474;-61
2023/02/27 18:23:50;;;;;;;59.65;32.45;;;;;;;;;;4856901;29;20505;-61
2023/02/27 18:26:18;;;;;;;69.43;36.00;;;;;;;;;;4857980;29;20033;-66
2023/02/27 18:28:44;;;;;;;63.05;34.00;;;;;;;;;;4856524;29;20017;-60
2023/02/27 18:31:20;;;;;;;62.65;32.20;;;;;;;;;;4857155;29;20033;-60
2023/02/27 18:33:46;;;;;;;61.00;32.00;;;;;;;;;;4839524;29;20117;-62
2023/02/27 18:36:12;;;;;;;53.55;28.02;;;;;;;;;;4841204;29;20332;-70
2023/02/27 18:38:39;;;;;;;49.17;27.35;;;;;;;;;;4858165;29;20524;-61
2023/02/27 18:41:05;;;;;;;49.30;27.08;;;;;;;;;;4843461;29;20391;-61
2023/02/27 18:43:32;;;;;;;48.92;27.55;;;;;;;;;;4838944;29;20030;-69
2023/02/27 18:45:58;;;;;;;48.28;26.02;;;;;;;;;;4838243;29;20061;-60
2023/02/27 18:48:24;;;;;;;51.85;27.05;;;;;;;;;;4838684;29;20048;-61
2023/02/27 18:50:50;;;;;;;49.83;27.52;;;;;;;;;;4839091;29;20033;-60
2023/02/27 18:53:17;;;;;;;51.20;28.27;;;;;;;;;;4839656;29;20038;-72
2023/02/27 18:55:43;;;;;;;53.55;28.63;;;;;;;;;;4839639;29;20075;-60
2023/02/27 18:58:09;;;;;;;53.45;28.02;;;;;;;;;;4843068;29;20094;-60
2023/02/27 19:00:36;;;;;;;50.22;27.88;;;;;;;;;;4842957;29;20040;-59
2023/02/27 19:03:04;;;;;;;43.10;26.35;;;;;;;;;;4825743;29;20390;-61
2023/02/27 19:05:30;;;;;;;43.38;25.10;;;;;;;;;;4843265;29;20026;-60
2023/02/27 19:07:57;;;;;;;45.05;25.52;;;;;;;;;;4842700;29;20078;-59
2023/02/27 19:10:23;;;;;;;38.95;23.58;;;;;;;;;;4843026;29;20537;-60
2023/02/27 19:12:50;;;;;;;42.85;25.20;;;;;;;;;;4843245;29;20034;-64
2023/02/27 19:15:16;;;;;;;39.42;22.92;;;;;;;;;;4843506;29;20159;-59
2023/02/27 19:17:42;;;;;;;41.42;25.33;;;;;;;;;;4842859;29;20038;-62
2023/02/27 19:20:13;;;;;;;46.35;25.67;;;;;;;;;;4842878;29;20509;-61
2023/02/27 19:22:39;;;;;;;54.63;29.00;;;;;;;;;;4843170;29;20466;-60
2023/02/27 19:25:05;;;;;;;64.35;34.78;;;;;;;;;;4842967;29;20037;-59
2023/02/27 19:27:31;;;;;;;66.15;35.55;;;;;;;;;;4843085;29;20382;-59
2023/02/27 19:30:00;;;;;;;72.63;38.15;;;;;;;;;;4842896;29;20380;-59
2023/02/27 19:32:26;;;;;;;83.10;45.90;;;;;;;;;;4841546;29;20026;-59
2023/02/27 19:34:52;;;;;;;82.40;44.20;;;;;;;;;;4841150;29;20567;-68
2023/02/27 19:37:18;;;;;;;82.28;44.47;;;;;;;;;;4841742;29;20097;-61
2023/02/27 19:39:45;;;;;;;78.22;41.10;;;;;;;;;;4842688;29;20088;-61
2023/02/27 19:42:11;;;;;;;71.95;38.47;;;;;;;;;;4842421;29;20037;-61
2023/02/27 19:44:39;;;;;;;64.85;35.03;;;;;;;;;;4842676;29;20041;-61
2023/02/27 19:47:05;;;;;;;70.18;38.80;;;;;;;;;;4842429;29;20041;-62
2023/02/27 19:49:31;;;;;;;53.63;29.80;;;;;;;;;;4842781;29;20030;-62
2023/02/27 19:51:57;;;;;;;66.38;37.47;;;;;;;;;;4842920;29;20245;-62
2023/02/27 19:54:23;;;;;;;56.47;31.30;;;;;;;;;;4842327;29;20098;-61
2023/02/27 19:56:51;;;;;;;54.45;30.63;;;;;;;;;;4842699;29;20029;-62
2023/02/27 19:59:17;;;;;;;46.75;27.67;;;;;;;;;;4842141;29;20034;-60
2023/02/27 20:01:43;;;;;;;61.20;35.65;;;;;;;;;;4842528;29;20034;-58
2023/02/27 20:04:10;;;;;;;49.28;28.08;;;;;;;;;;4842472;29;20030;-60
2023/02/27 20:06:40;;;;;;;49.55;29.92;;;;;;;;;;4842352;29;20167;-59
2023/02/27 20:09:06;;;;;;;45.38;27.35;;;;;;;;;;4842001;29;20057;-59
2023/02/27 20:11:32;;;;;;;54.75;31.90;;;;;;;;;;4842372;29;20436;-65
2023/02/27 20:13:58;;;;;;;38.42;22.95;;;;;;;;;;4842285;29;20046;-59
2023/02/27 20:16:26;;;;;;;43.63;23.95;;;;;;;;;;4842027;29;20022;-59
2023/02/27 20:18:53;;;;;;;37.28;21.67;;;;;;;;;;4841831;29;20542;-61
2023/02/27 20:21:22;;;;;;;35.55;20.10;;;;;;;;;;4842197;29;20038;-59
2023/02/27 20:23:50;;;;;;;41.42;25.13;;;;;;;;;;4841990;29;20034;-64
2023/02/27 20:26:18;;;;;;;52.25;31.30;;;;;;;;;;4842063;29;20025;-60
2023/02/27 20:28:45;;;;;;;50.92;28.20;;;;;;;;;;4841793;29;20037;-60
2023/02/27 20:31:11;;;;;;;48.00;27.73;;;;;;;;;;4842008;29;20436;-60
2023/02/27 20:33:38;;;;;;;48.55;27.80;;;;;;;;;;4841945;29;20060;-66
2023/02/27 20:36:05;;;;;;;46.28;26.00;;;;;;;;;;4842050;29;20038;-62
2023/02/27 20:38:32;;;;;;;37.95;21.98;;;;;;;;;;4841452;29;20097;-64
2023/02/27 20:40:58;;;;;;;41.08;22.40;;;;;;;;;;4841792;29;20094;-60
2023/02/27 20:43:24;;;;;;;38.72;21.77;;;;;;;;;;4841903;29;20025;-60
2023/02/27 20:45:50;;;;;;;38.88;21.08;;;;;;;;;;4841737;29;20486;-60
2023/02/27 20:48:16;;;;;;;39.40;22.92;;;;;;;;;;4841555;29;20438;-60
2023/02/27 20:50:42;;;;;;;45.15;25.05;;;;;;;;;;4841628;29;20029;-60
2023/02/27 20:53:08;;;;;;;44.95;24.10;;;;;;;;;;4841507;29;20513;-59
2023/02/27 20:55:34;;;;;;;44.88;25.60;;;;;;;;;;4841582;29;20030;-60
2023/02/27 20:58:00;;;;;;;40.47;23.08;;;;;;;;;;4841482;29;20082;-76
2023/02/27 21:00:26;;;;;;;37.05;20.75;;;;;;;;;;4841141;29;20038;-60
2023/02/27 21:02:53;;;;;;;42.13;21.90;;;;;;;;;;4841594;29;20387;-75
2023/02/27 21:05:19;;;;;;;41.67;21.73;;;;;;;;;;4841479;29;20030;-60